Holiday Hills, Illinois
Current Conditions -  °F | °C
As of 8:55 PM on Friday 24 Oct 2014 (Local Time) from KUGN Reporting Station
Haze Haze  
Wind Chill: 51°   Ceiling: 6500
Heat Index: 51°   Visibility: 2.5mi
Dew Point: 49°   Wind: 0mph
Humidity: 92%   Direction: NA
Pressure: 29.92"   Gusts: NA
Location:  42.338°N, 88.2857°W
Report Text: KUGN 250155Z AUTO 00000KT 2 1/2SM BR BKN065 OVC100 11/09 A2992 RMK AO2 SLP133 T01060094
Loading
Personal Weather Stations






























Interactive Weather Map
Tropical Storm Tracking
New forecast layout! Learn more

10-Day Weather Forecast

Advertisements
Track Severe Weather on mobile